Time;durP1;ratioP1;P1;durP2;ratioP2;P2;SDS_P1;SDS_P2;PMS_P1;PMS_P2;Temp;Humidity;BMP_temperature;BMP_pressure;BME280_temperature;BME280_humidity;BME280_pressure;Samples;Min_cycle;Max_cycle;Signal;HPM_P1;HPM_P2
2021/03/02 00:02:07;;;;;;;10.90;6.30;;;4.00;99.90;;;;;;4993380;28;20445;-83
2021/03/02 00:04:33;;;;;;;10.23;6.37;;;3.90;99.90;;;;;;4993151;28;20534;-82
2021/03/02 00:06:59;;;;;;;9.80;6.33;;;4.00;99.90;;;;;;4993135;28;20834;-83
2021/03/02 00:09:26;;;;;;;11.03;6.23;;;3.90;99.90;;;;;;4993224;28;20440;-81
2021/03/02 00:11:54;;;;;;;11.27;6.20;;;3.90;99.90;;;;;;4993367;28;20453;-80
2021/03/02 00:14:21;;;;;;;9.37;5.70;;;3.90;99.90;;;;;;4993117;28;20433;-80
2021/03/02 00:16:55;;;;;;;8.90;5.73;;;3.80;99.90;;;;;;4993386;28;20471;-80
2021/03/02 00:19:31;;;;;;;9.30;7.40;;;3.80;99.90;;;;;;4993409;28;20440;-81
2021/03/02 00:22:06;;;;;;;9.70;6.27;;;3.80;99.90;;;;;;4993532;28;20447;-80
2021/03/02 00:24:35;;;;;;;10.70;5.83;;;3.70;99.90;;;;;;4993411;28;20471;-85
2021/03/02 00:27:04;;;;;;;9.17;5.97;;;3.70;99.90;;;;;;4994270;28;20511;-85
2021/03/02 00:29:30;;;;;;;8.97;6.20;;;3.70;99.90;;;;;;4997019;28;20471;-85
2021/03/02 00:31:58;;;;;;;7.50;5.23;;;3.60;99.90;;;;;;4997118;28;20436;-85
2021/03/02 00:34:25;;;;;;;8.40;5.93;;;3.60;99.90;;;;;;4996812;28;20456;-85
2021/03/02 00:36:51;;;;;;;10.20;5.80;;;3.60;99.90;;;;;;4996895;28;20448;-85
2021/03/02 00:39:17;;;;;;;10.10;6.17;;;3.50;99.90;;;;;;4997145;28;20453;-85
2021/03/02 00:41:44;;;;;;;11.90;5.73;;;3.50;99.90;;;;;;4996835;28;20452;-85
2021/03/02 00:44:11;;;;;;;9.33;6.70;;;3.40;99.90;;;;;;4996646;28;20460;-85
2021/03/02 00:46:37;;;;;;;9.53;5.70;;;3.40;99.90;;;;;;4996548;28;20499;-85
2021/03/02 00:49:04;;;;;;;7.33;5.40;;;3.40;99.90;;;;;;4996304;28;20489;-85
2021/03/02 00:51:31;;;;;;;10.40;5.40;;;3.40;99.90;;;;;;4996288;28;20444;-83
2021/03/02 00:53:57;;;;;;;8.47;5.20;;;3.40;99.90;;;;;;4996181;28;20907;-83
2021/03/02 00:56:24;;;;;;;8.10;5.07;;;3.40;99.90;;;;;;4996003;28;20464;-84
2021/03/02 00:58:50;;;;;;;11.90;6.30;;;3.30;99.90;;;;;;4996326;28;20452;-84
2021/03/02 01:01:17;;;;;;;11.37;6.03;;;3.30;99.90;;;;;;4996299;28;20834;-84
2021/03/02 01:03:43;;;;;;;8.77;5.40;;;3.20;99.90;;;;;;4996534;28;20453;-84
2021/03/02 01:06:09;;;;;;;9.23;4.80;;;3.20;99.90;;;;;;4995811;28;20484;-84
2021/03/02 01:08:36;;;;;;;8.43;5.10;;;3.20;99.90;;;;;;4996446;28;20838;-83
2021/03/02 01:11:03;;;;;;;8.93;5.47;;;3.10;99.90;;;;;;4996087;28;20488;-83
2021/03/02 01:13:29;;;;;;;9.93;5.43;;;3.20;99.90;;;;;;4995981;28;20467;-80
2021/03/02 01:15:56;;;;;;;10.80;6.03;;;3.10;99.90;;;;;;4996278;28;20479;-81
2021/03/02 01:18:22;;;;;;;8.17;5.23;;;3.10;99.90;;;;;;4995901;28;20503;-81
2021/03/02 01:20:48;;;;;;;9.97;6.30;;;3.20;99.90;;;;;;4995559;28;20948;-81
2021/03/02 01:23:14;;;;;;;8.40;5.37;;;3.10;99.90;;;;;;4995552;28;20948;-81
2021/03/02 01:25:41;;;;;;;9.07;5.40;;;3.10;99.90;;;;;;4995886;28;20515;-84
2021/03/02 01:28:08;;;;;;;10.70;6.43;;;3.10;99.90;;;;;;4995910;28;20518;-85
2021/03/02 01:30:34;;;;;;;9.17;5.30;;;3.00;99.90;;;;;;4996059;28;20430;-85
2021/03/02 01:33:00;;;;;;;14.27;6.93;;;3.00;99.90;;;;;;4995847;28;20415;-85
2021/03/02 01:35:27;;;;;;;9.40;5.30;;;3.00;99.90;;;;;;4995679;28;20476;-85
2021/03/02 01:37:54;;;;;;;15.03;6.30;;;2.90;99.90;;;;;;4995032;28;20928;-83
2021/03/02 01:40:22;;;;;;;12.23;6.73;;;2.90;99.90;;;;;;4995078;28;20431;-83
2021/03/02 01:42:49;;;;;;;11.13;7.63;;;2.80;99.90;;;;;;4995649;28;20471;-83
2021/03/02 01:45:18;;;;;;;11.70;7.80;;;2.80;99.90;;;;;;4995104;28;20512;-83
2021/03/02 01:47:50;;;;;;;10.87;7.40;;;2.70;99.90;;;;;;4995022;28;21061;-81
2021/03/02 01:50:18;;;;;;;14.50;7.13;;;2.70;99.90;;;;;;4996035;28;20441;-81
2021/03/02 01:52:44;;;;;;;12.33;7.47;;;2.70;99.90;;;;;;4995285;28;20515;-83
2021/03/02 01:55:11;;;;;;;19.40;8.37;;;2.70;99.90;;;;;;4994820;28;20481;-83
2021/03/02 01:57:37;;;;;;;10.93;6.40;;;2.60;99.90;;;;;;4995145;28;20456;-83
2021/03/02 02:00:11;;;;;;;11.43;6.50;;;2.60;99.90;;;;;;4995153;28;20448;-83
2021/03/02 02:02:42;;;;;;;11.77;6.43;;;2.60;99.90;;;;;;4994915;28;20932;-83
2021/03/02 02:05:13;;;;;;;12.47;6.63;;;2.60;99.90;;;;;;4995276;28;20473;-83
2021/03/02 02:07:42;;;;;;;15.20;7.33;;;2.60;99.90;;;;;;4994943;28;21038;-83
2021/03/02 02:10:14;;;;;;;12.67;7.60;;;2.60;99.90;;;;;;4995122;28;20448;-83
2021/03/02 02:12:42;;;;;;;10.20;6.50;;;2.70;99.90;;;;;;4994739;28;20417;-83
2021/03/02 02:15:12;;;;;;;10.63;7.30;;;2.70;99.90;;;;;;4994743;28;20468;-83
2021/03/02 02:17:42;;;;;;;11.73;7.07;;;2.70;99.90;;;;;;4994790;28;20450;-83
2021/03/02 02:20:10;;;;;;;10.10;6.70;;;2.70;99.90;;;;;;4994742;28;20452;-83
2021/03/02 02:23:09;;;;;;;10.90;6.10;;;2.70;99.90;;;;;;4994739;28;20449;-83
2021/03/02 02:25:44;;;;;;;9.93;6.53;;;2.70;99.90;;;;;;4994440;28;20456;-83
2021/03/02 02:28:13;;;;;;;15.67;7.10;;;2.70;99.90;;;;;;4994312;28;20443;-83
2021/03/02 02:30:43;;;;;;;9.97;6.07;;;2.70;99.90;;;;;;4994669;28;20444;-83
2021/03/02 02:33:12;;;;;;;9.87;5.70;;;2.60;99.90;;;;;;4995044;28;21020;-83
2021/03/02 02:35:42;;;;;;;10.10;5.70;;;2.60;99.90;;;;;;4994457;28;20470;-83
2021/03/02 02:38:10;;;;;;;9.27;5.30;;;2.60;99.90;;;;;;4994497;28;20448;-83
2021/03/02 02:40:38;;;;;;;10.30;5.70;;;2.60;99.90;;;;;;4994132;28;20436;-83
2021/03/02 02:43:06;;;;;;;11.23;6.40;;;2.60;99.90;;;;;;4994064;28;20930;-83
2021/03/02 02:45:33;;;;;;;9.00;5.20;;;2.60;99.90;;;;;;4994259;28;20472;-83
2021/03/02 02:48:00;;;;;;;7.30;5.20;;;2.60;99.90;;;;;;4994310;28;20844;-83
2021/03/02 02:50:28;;;;;;;10.27;5.87;;;2.60;99.90;;;;;;4994307;28;20453;-83
2021/03/02 02:52:56;;;;;;;7.70;4.80;;;2.70;99.90;;;;;;4994255;28;20435;-83
2021/03/02 02:55:30;;;;;;;8.00;5.40;;;2.70;99.90;;;;;;4993986;28;20476;-83
2021/03/02 02:57:59;;;;;;;11.53;6.27;;;2.80;99.90;;;;;;4994006;28;20431;-83
2021/03/02 03:00:26;;;;;;;10.00;5.47;;;2.80;99.90;;;;;;4993888;28;20983;-83
2021/03/02 03:02:55;;;;;;;7.90;4.90;;;2.80;99.90;;;;;;4994108;28;20526;-83
2021/03/02 03:05:25;;;;;;;9.97;5.30;;;2.80;99.90;;;;;;4993967;28;20475;-83
2021/03/02 03:07:55;;;;;;;11.37;4.90;;;2.90;99.90;;;;;;4994478;28;20461;-83
2021/03/02 03:10:24;;;;;;;9.63;5.30;;;2.90;99.90;;;;;;4994050;28;20460;-83
2021/03/02 03:12:52;;;;;;;8.73;5.13;;;2.80;99.90;;;;;;4994534;28;20456;-83
2021/03/02 03:15:20;;;;;;;10.60;5.97;;;2.80;99.90;;;;;;4993688;28;20481;-83
2021/03/02 03:17:49;;;;;;;10.00;5.50;;;2.70;99.90;;;;;;4994162;28;20441;-83
2021/03/02 03:20:17;;;;;;;10.33;5.10;;;2.70;99.90;;;;;;4993994;28;20830;-83
2021/03/02 03:22:45;;;;;;;8.60;5.47;;;2.70;99.90;;;;;;4993896;28;20456;-83
2021/03/02 03:25:13;;;;;;;9.60;5.50;;;2.60;99.90;;;;;;4993709;28;20593;-83
2021/03/02 03:27:42;;;;;;;9.03;5.87;;;2.70;99.90;;;;;;4993832;28;20480;-83
2021/03/02 03:30:11;;;;;;;10.80;5.80;;;2.60;99.90;;;;;;4993888;28;20448;-83
2021/03/02 03:32:38;;;;;;;10.53;5.83;;;2.60;99.90;;;;;;4993510;28;20944;-83
2021/03/02 03:35:07;;;;;;;9.60;5.77;;;2.60;99.90;;;;;;4993486;28;20547;-83
2021/03/02 03:37:34;;;;;;;8.63;5.50;;;2.50;99.90;;;;;;4993562;28;20422;-83
2021/03/02 03:40:00;;;;;;;11.00;5.93;;;2.40;99.90;;;;;;4993510;28;20937;-83
2021/03/02 03:42:26;;;;;;;8.20;4.83;;;2.40;99.90;;;;;;4993415;28;20974;-83
2021/03/02 03:44:53;;;;;;;10.77;6.73;;;2.30;99.90;;;;;;4993717;28;20909;-83
2021/03/02 03:47:19;;;;;;;7.70;5.50;;;2.30;99.90;;;;;;4993346;28;20999;-83
2021/03/02 03:49:46;;;;;;;8.03;5.37;;;2.20;99.90;;;;;;4993609;28;20798;-81
2021/03/02 03:52:19;;;;;;;7.93;5.93;;;2.20;99.90;;;;;;4993789;28;20466;-80
2021/03/02 03:54:47;;;;;;;9.80;6.90;;;2.20;99.90;;;;;;4993435;28;20475;-83
2021/03/02 03:57:15;;;;;;;13.43;6.60;;;2.20;99.90;;;;;;4993307;28;20448;-84
2021/03/02 03:59:43;;;;;;;9.03;6.20;;;2.20;99.90;;;;;;4993642;28;20446;-83
2021/03/02 04:02:09;;;;;;;13.70;6.33;;;2.10;99.90;;;;;;4994234;28;20445;-84
2021/03/02 04:27:33;;;;;;;10.13;6.00;;;2.00;99.90;;;;;;4824914;29;20476;-83
2021/03/02 04:29:59;;;;;;;11.20;6.50;;;1.90;99.90;;;;;;4932439;29;20458;-83
2021/03/02 04:32:25;;;;;;;11.77;6.00;;;1.90;99.90;;;;;;4985080;28;20457;-83
2021/03/02 04:34:52;;;;;;;11.57;7.30;;;1.80;99.90;;;;;;4996502;28;20440;-83
2021/03/02 04:37:19;;;;;;;11.07;6.67;;;1.80;99.90;;;;;;4996539;28;20448;-83
2021/03/02 04:39:45;;;;;;;19.83;7.20;;;1.80;99.90;;;;;;4996498;28;20526;-83
2021/03/02 04:42:11;;;;;;;12.90;7.00;;;1.80;99.90;;;;;;4996645;28;20458;-83
2021/03/02 04:44:38;;;;;;;12.00;7.10;;;1.70;99.90;;;;;;4996216;28;20457;-83
2021/03/02 04:47:04;;;;;;;14.23;7.63;;;1.80;99.90;;;;;;4996525;28;20827;-84
2021/03/02 04:49:30;;;;;;;11.07;6.90;;;1.70;99.90;;;;;;4996696;28;20436;-84
2021/03/02 04:51:57;;;;;;;11.23;7.00;;;1.80;99.90;;;;;;4996332;28;20471;-84
2021/03/02 04:54:25;;;;;;;11.00;7.10;;;1.80;99.90;;;;;;4995925;28;20812;-83
2021/03/02 04:56:52;;;;;;;13.93;7.60;;;1.80;99.90;;;;;;4996311;28;20431;-83
2021/03/02 04:59:18;;;;;;;12.80;7.40;;;1.80;99.90;;;;;;4996719;28;20452;-83
2021/03/02 05:01:44;;;;;;;13.20;7.50;;;1.70;99.90;;;;;;4995992;28;20503;-83
2021/03/02 05:04:10;;;;;;;13.10;8.00;;;1.70;99.90;;;;;;4995891;28;20937;-83
2021/03/02 05:06:37;;;;;;;12.90;7.00;;;1.70;99.90;;;;;;4996143;28;20962;-83
2021/03/02 05:09:03;;;;;;;15.97;8.77;;;1.70;99.90;;;;;;4995976;28;20491;-83
2021/03/02 05:11:31;;;;;;;10.47;6.93;;;1.60;99.90;;;;;;4996075;28;20832;-83
2021/03/02 05:13:57;;;;;;;14.23;8.47;;;1.60;99.90;;;;;;4995957;28;20448;-83
2021/03/02 05:16:23;;;;;;;17.07;9.03;;;1.60;99.90;;;;;;4995568;28;20962;-83
2021/03/02 05:18:49;;;;;;;13.20;7.97;;;1.60;99.90;;;;;;4995666;28;20474;-83
2021/03/02 05:21:16;;;;;;;13.93;8.77;;;1.60;99.90;;;;;;4995652;28;20499;-83
2021/03/02 05:23:42;;;;;;;15.70;8.60;;;1.70;99.90;;;;;;4995758;28;20832;-83
2021/03/02 05:26:08;;;;;;;15.67;8.70;;;1.70;99.90;;;;;;4995477;28;20954;-83
2021/03/02 05:28:35;;;;;;;16.87;8.90;;;1.70;99.90;;;;;;4995940;28;20848;-83
2021/03/02 05:31:01;;;;;;;14.00;9.00;;;1.60;99.90;;;;;;4995784;28;20513;-83
2021/03/02 05:33:28;;;;;;;16.53;8.07;;;1.60;99.90;;;;;;4995726;28;20423;-84
2021/03/02 05:35:54;;;;;;;13.33;8.80;;;1.50;99.90;;;;;;4995586;28;20480;-83
2021/03/02 05:38:20;;;;;;;13.80;8.47;;;1.50;99.90;;;;;;4996385;28;20419;-83
2021/03/02 05:40:46;;;;;;;15.17;8.17;;;1.60;99.90;;;;;;4995171;28;20464;-83
2021/03/02 05:43:13;;;;;;;11.40;7.70;;;1.60;99.90;;;;;;4995437;28;20443;-83
2021/03/02 05:45:43;;;;;;;16.13;9.40;;;1.60;99.90;;;;;;4995037;28;20472;-83
2021/03/02 05:48:11;;;;;;;15.30;8.27;;;1.60;99.90;;;;;;4995316;28;20996;-83
2021/03/02 05:50:37;;;;;;;16.30;9.67;;;1.60;99.90;;;;;;4995106;28;20411;-83
2021/03/02 05:53:04;;;;;;;13.17;8.07;;;1.60;99.90;;;;;;4995032;28;20431;-83
2021/03/02 05:55:34;;;;;;;12.40;7.97;;;1.60;99.90;;;;;;4995012;28;20488;-83
2021/03/02 05:58:01;;;;;;;14.00;8.80;;;1.50;99.90;;;;;;4994966;28;20515;-83
2021/03/02 06:00:28;;;;;;;15.77;8.60;;;1.50;99.90;;;;;;4995144;28;20481;-83
2021/03/02 06:02:55;;;;;;;15.03;9.40;;;1.60;99.90;;;;;;4995057;28;20456;-83
2021/03/02 06:05:21;;;;;;;19.33;9.20;;;1.60;99.90;;;;;;4995039;28;20475;-83
2021/03/02 06:07:48;;;;;;;15.63;8.47;;;1.70;99.90;;;;;;4995004;28;20555;-83
2021/03/02 06:10:16;;;;;;;15.30;8.67;;;1.70;99.90;;;;;;4995057;28;20453;-83
2021/03/02 06:12:52;;;;;;;14.50;9.13;;;1.70;99.90;;;;;;4994643;28;20434;-83
2021/03/02 06:15:20;;;;;;;14.60;8.27;;;1.80;99.90;;;;;;4994853;28;20497;-83
2021/03/02 06:17:46;;;;;;;17.60;10.13;;;1.80;99.90;;;;;;4994910;28;20476;-83
2021/03/02 06:20:20;;;;;;;14.63;8.90;;;1.90;99.90;;;;;;4994802;28;20452;-83
2021/03/02 06:22:47;;;;;;;18.77;9.70;;;1.90;99.90;;;;;;4994513;28;20440;-83
2021/03/02 06:25:27;;;;;;;16.67;9.17;;;1.90;99.90;;;;;;4994095;28;20839;-83
2021/03/02 06:27:54;;;;;;;15.73;9.70;;;2.00;99.90;;;;;;4994336;28;20479;-83
2021/03/02 06:30:21;;;;;;;16.37;10.60;;;2.10;99.90;;;;;;4994465;28;20442;-83
2021/03/02 06:32:49;;;;;;;16.00;10.40;;;2.10;99.90;;;;;;4994169;28;20956;-83
2021/03/02 06:35:31;;;;;;;15.90;9.57;;;2.20;99.90;;;;;;4994253;28;20457;-82
2021/03/02 06:37:58;;;;;;;17.90;9.90;;;2.30;99.90;;;;;;4994741;28;20437;-85
2021/03/02 06:40:41;;;;;;;16.90;9.70;;;2.30;99.90;;;;;;4994694;28;20447;-85
2021/03/02 06:43:08;;;;;;;24.03;10.70;;;2.40;99.90;;;;;;4995029;28;20428;-85
2021/03/02 06:45:34;;;;;;;16.50;9.70;;;2.50;99.90;;;;;;4994127;28;20442;-80
2021/03/02 06:48:06;;;;;;;16.70;9.93;;;2.50;99.90;;;;;;4993949;28;20458;-80
2021/03/02 06:50:38;;;;;;;16.80;9.90;;;2.50;99.90;;;;;;4994142;28;20468;-83
2021/03/02 06:53:11;;;;;;;16.00;9.80;;;2.60;99.90;;;;;;4994305;28;20436;-83
2021/03/02 06:55:39;;;;;;;17.50;10.10;;;2.60;99.90;;;;;;4993784;28;20480;-83
2021/03/02 06:58:16;;;;;;;15.80;9.37;;;2.70;99.90;;;;;;4994156;28;20861;-80
2021/03/02 07:00:48;;;;;;;15.37;10.40;;;2.70;99.90;;;;;;4994114;28;20452;-80
2021/03/02 07:03:26;;;;;;;16.37;8.73;;;2.70;99.90;;;;;;4994039;28;20415;-82
2021/03/02 07:05:54;;;;;;;18.73;9.60;;;2.80;99.90;;;;;;4993831;28;20461;-82
2021/03/02 07:08:20;;;;;;;13.93;8.80;;;2.70;99.90;;;;;;4994297;28;20484;-82
2021/03/02 07:10:50;;;;;;;17.00;9.23;;;2.80;99.90;;;;;;4993809;28;20436;-80
2021/03/02 07:13:17;;;;;;;14.70;9.40;;;2.80;99.90;;;;;;4994590;28;20457;-83
2021/03/02 07:15:45;;;;;;;14.63;9.13;;;2.80;99.90;;;;;;4993699;28;20496;-83
2021/03/02 07:18:14;;;;;;;18.73;10.27;;;2.90;99.90;;;;;;4993958;28;20448;-83
2021/03/02 07:20:46;;;;;;;14.47;9.47;;;2.90;99.90;;;;;;4994500;28;20438;-81
2021/03/02 07:23:30;;;;;;;13.67;9.13;;;2.90;99.90;;;;;;4994384;28;20460;-82
2021/03/02 07:26:01;;;;;;;15.27;9.40;;;3.00;99.90;;;;;;4993721;28;20477;-82
2021/03/02 07:28:35;;;;;;;17.77;11.70;;;3.10;99.90;;;;;;4960819;28;20483;-84
2021/03/02 07:31:01;;;;;;;17.43;9.87;;;3.20;99.90;;;;;;4994062;28;20469;-83
2021/03/02 07:33:27;;;;;;;16.10;9.43;;;3.20;99.90;;;;;;4993861;28;20457;-82
2021/03/02 07:35:56;;;;;;;15.90;9.23;;;3.30;99.90;;;;;;4993558;28;20460;-80
2021/03/02 07:38:23;;;;;;;16.43;9.23;;;3.30;99.90;;;;;;4997066;28;20875;-81
2021/03/02 07:40:53;;;;;;;20.07;11.03;;;3.40;99.90;;;;;;4997898;28;20452;-80
2021/03/02 07:43:27;;;;;;;16.97;9.70;;;3.50;99.90;;;;;;4997612;28;20403;-80
2021/03/02 07:45:54;;;;;;;16.00;9.20;;;3.60;99.90;;;;;;4997832;28;20479;-85
2021/03/02 07:48:28;;;;;;;19.53;9.57;;;3.70;99.90;;;;;;4997505;28;20471;-83
2021/03/02 07:51:21;;;;;;;16.10;9.13;;;3.80;99.90;;;;;;4997525;28;20967;-81
2021/03/02 07:53:50;;;;;;;14.97;9.50;;;3.90;99.90;;;;;;4997719;28;20568;-83
2021/03/02 07:56:26;;;;;;;15.97;9.63;;;4.00;99.90;;;;;;4997430;28;20456;-83
2021/03/02 07:59:18;;;;;;;14.37;9.03;;;4.10;99.90;;;;;;4997509;28;20519;-85
2021/03/02 08:02:05;;;;;;;16.40;9.80;;;4.20;99.90;;;;;;4998023;28;20804;-84
2021/03/02 08:04:31;;;;;;;16.90;8.43;;;4.30;99.90;;;;;;4997047;28;20472;-82
2021/03/02 08:07:25;;;;;;;18.37;10.03;;;4.40;99.90;;;;;;4997014;28;20979;-82
2021/03/02 08:09:53;;;;;;;14.10;9.07;;;4.50;99.90;;;;;;4997239;28;20588;-83
2021/03/02 08:12:32;;;;;;;12.57;7.70;;;4.60;99.90;;;;;;4997306;28;20407;-85
2021/03/02 08:15:00;;;;;;;16.50;8.60;;;4.70;99.90;;;;;;4997558;28;20467;-85
2021/03/02 08:17:27;;;;;;;16.07;9.97;;;4.70;99.90;;;;;;4997360;28;20421;-86
2021/03/02 08:20:01;;;;;;;15.53;9.93;;;4.80;99.90;;;;;;4996993;28;20425;-83
2021/03/02 08:22:58;;;;;;;14.43;8.83;;;4.90;99.90;;;;;;4997103;28;20413;-83
2021/03/02 08:25:27;;;;;;;16.13;9.97;;;5.10;99.90;;;;;;4996908;28;20479;-82
2021/03/02 08:27:57;;;;;;;13.67;10.00;;;5.20;99.90;;;;;;4995940;28;20847;-80
2021/03/02 08:30:25;;;;;;;14.30;9.80;;;5.30;99.90;;;;;;4996743;28;20460;-81
2021/03/02 08:32:53;;;;;;;13.10;8.30;;;5.40;99.90;;;;;;4996768;28;20453;-81
2021/03/02 08:35:23;;;;;;;15.30;8.97;;;5.60;99.90;;;;;;4996758;28;20889;-80
2021/03/02 08:37:51;;;;;;;17.37;9.70;;;5.80;99.90;;;;;;4996688;28;20464;-81
2021/03/02 08:40:20;;;;;;;17.50;9.80;;;5.90;99.90;;;;;;4996622;28;20452;-81
2021/03/02 08:43:05;;;;;;;14.23;8.90;;;6.20;99.90;;;;;;4996633;28;20460;-81
2021/03/02 08:45:34;;;;;;;15.00;9.90;;;6.40;99.90;;;;;;4996298;28;20825;-81
2021/03/02 08:48:21;;;;;;;13.77;9.53;;;6.60;99.90;;;;;;4996042;28;20488;-80
2021/03/02 08:50:48;;;;;;;13.57;9.50;;;6.80;99.90;;;;;;4996531;28;20460;-81
2021/03/02 08:53:37;;;;;;;15.50;9.20;;;6.90;99.90;;;;;;4996395;28;20460;-81
2021/03/02 08:56:06;;;;;;;16.70;10.80;;;7.20;99.90;;;;;;4976865;28;20478;-81
2021/03/02 08:58:36;;;;;;;12.47;9.00;;;7.40;99.90;;;;;;4976915;28;20449;-81
2021/03/02 09:01:05;;;;;;;15.33;10.93;;;7.50;99.90;;;;;;4976372;28;20441;-81
2021/03/02 09:03:33;;;;;;;16.50;10.27;;;8.00;99.90;;;;;;4976758;28;20462;-81
2021/03/02 09:06:10;;;;;;;14.80;9.73;;;8.70;99.90;;;;;;4977187;28;20477;-86
2021/03/02 09:11:31;;;;;;;14.83;9.63;;;10.70;99.80;;;;;;4976112;28;20429;-83
2021/03/02 09:14:00;;;;;;;12.93;9.20;;;12.40;94.30;;;;;;4976278;28;21055;-83
2021/03/02 09:16:38;;;;;;;12.27;9.10;;;14.00;84.80;;;;;;4976539;28;20888;-83
2021/03/02 09:19:20;;;;;;;14.43;9.80;;;15.30;74.70;;;;;;4976577;28;20409;-83
2021/03/02 09:21:49;;;;;;;14.13;9.57;;;16.50;66.00;;;;;;4976510;28;20425;-83
2021/03/02 09:24:18;;;;;;;12.20;9.33;;;17.50;61.00;;;;;;4976099;28;20933;-84
2021/03/02 09:26:59;;;;;;;11.47;8.80;;;18.30;56.60;;;;;;4976001;28;20987;-84
2021/03/02 09:29:28;;;;;;;15.53;10.07;;;19.50;54.80;;;;;;4976122;28;20464;-84
2021/03/02 09:31:57;;;;;;;12.30;9.80;;;20.10;50.60;;;;;;4976304;28;20821;-84
2021/03/02 09:34:31;;;;;;;13.70;10.23;;;20.60;49.50;;;;;;4975881;28;20469;-84
2021/03/02 09:37:04;;;;;;;11.73;9.23;;;21.00;47.90;;;;;;4975901;28;20433;-83
2021/03/02 09:39:31;;;;;;;10.93;9.83;;;21.10;46.00;;;;;;4976255;28;20457;-83
2021/03/02 09:41:58;;;;;;;13.17;9.67;;;21.80;45.30;;;;;;4976083;28;20449;-83
2021/03/02 09:44:30;;;;;;;10.80;9.50;;;22.70;45.20;;;;;;4975885;28;20457;-84
2021/03/02 09:47:00;;;;;;;12.32;9.88;;;23.60;42.20;;;;;;4975862;28;20581;-83
2021/03/02 09:49:54;;;;;;;13.80;9.70;;;23.10;42.00;;;;;;4975753;28;20295;-83
2021/03/02 09:52:32;;;;;;;10.23;9.23;;;22.30;41.20;;;;;;4976096;28;20210;-83
2021/03/02 09:55:23;;;;;;;9.70;8.63;;;22.60;42.30;;;;;;4988366;28;20228;-83
2021/03/02 09:58:11;;;;;;;11.05;9.88;;;23.10;40.80;;;;;;4995257;28;20737;-83
2021/03/02 10:00:41;;;;;;;10.90;9.07;;;22.90;40.30;;;;;;4994977;28;20219;-83
2021/03/02 10:03:12;;;;;;;11.65;9.00;;;22.80;41.00;;;;;;4995467;28;20522;-84
2021/03/02 10:05:43;;;;;;;10.75;9.60;;;23.10;41.20;;;;;;4994880;28;20260;-84
2021/03/02 10:08:32;;;;;;;13.07;9.77;;;23.40;40.60;;;;;;4995033;28;20224;-84
2021/03/02 10:11:00;;;;;;;11.57;9.68;;;22.90;39.70;;;;;;4993233;28;20577;-84
2021/03/02 10:13:31;;;;;;;9.95;8.93;;;22.80;40.90;;;;;;4995433;28;20535;-84
2021/03/02 10:16:19;;;;;;;9.80;8.70;;;23.20;40.10;;;;;;4994833;28;20320;-84
2021/03/02 10:18:47;;;;;;;12.23;9.60;;;22.80;40.50;;;;;;4994699;28;20205;-84
2021/03/02 10:21:14;;;;;;;11.00;9.00;;;22.30;39.40;;;;;;4994374;28;20197;-84
2021/03/02 10:23:42;;;;;;;9.73;8.73;;;21.40;40.80;;;;;;4994487;28;20684;-84
2021/03/02 10:26:08;;;;;;;12.60;9.53;;;21.90;41.90;;;;;;4994202;28;20236;-84
2021/03/02 10:28:35;;;;;;;12.60;9.40;;;22.10;40.30;;;;;;4994122;28;20216;-84
2021/03/02 10:31:01;;;;;;;12.10;8.90;;;22.70;40.00;;;;;;4995373;28;20456;-84
2021/03/02 10:33:29;;;;;;;11.30;9.50;;;23.60;39.00;;;;;;5005617;28;20200;-84
2021/03/02 10:35:55;;;;;;;9.93;8.38;;;25.10;37.40;;;;;;5013454;28;20778;-84
2021/03/02 10:38:22;;;;;;;10.07;9.02;;;26.20;36.10;;;;;;5003729;28;20205;-84
2021/03/02 10:40:48;;;;;;;9.40;8.40;;;27.00;35.10;;;;;;4994285;28;20196;-83
2021/03/02 10:43:15;;;;;;;9.98;8.38;;;27.60;33.90;;;;;;4994245;28;20220;-83
2021/03/02 10:45:41;;;;;;;9.43;8.43;;;28.00;33.40;;;;;;5013468;28;20307;-84
2021/03/02 10:48:08;;;;;;;10.73;8.20;;;28.70;30.80;;;;;;5000051;28;20274;-84
2021/03/02 10:50:35;;;;;;;9.32;7.82;;;29.00;30.70;;;;;;5005755;28;20214;-84
2021/03/02 10:53:02;;;;;;;11.77;9.60;;;29.50;30.00;;;;;;4993894;28;20672;-84
2021/03/02 10:55:28;;;;;;;10.30;9.23;;;29.40;29.40;;;;;;5003029;28;20232;-87
2021/03/02 10:57:54;;;;;;;9.75;8.75;;;29.10;29.30;;;;;;5010513;28;20227;-83
2021/03/02 11:00:21;;;;;;;9.63;8.50;;;28.90;29.80;;;;;;5013789;28;20208;-85
2021/03/02 11:02:47;;;;;;;10.68;9.70;;;28.60;29.90;;;;;;5008656;28;20201;-83
2021/03/02 11:05:14;;;;;;;9.95;8.95;;;29.30;29.70;;;;;;4994143;28;20227;-87
2021/03/02 11:07:45;;;;;;;10.48;8.20;;;29.10;28.80;;;;;;4994234;28;20196;-82
2021/03/02 11:10:12;;;;;;;9.63;8.73;;;27.70;29.80;;;;;;4994353;28;20223;-83
2021/03/02 11:12:39;;;;;;;10.32;9.27;;;27.10;31.40;;;;;;4994033;28;20657;-84
2021/03/02 11:15:11;;;;;;;9.55;8.55;;;25.50;32.70;;;;;;4994001;28;20755;-83
2021/03/02 11:17:39;;;;;;;9.85;8.75;;;24.00;33.80;;;;;;4993854;28;20306;-83
2021/03/02 11:20:06;;;;;;;10.02;9.00;;;22.90;35.70;;;;;;4994079;28;20197;-87
2021/03/02 11:22:33;;;;;;;10.15;7.65;;;21.30;37.20;;;;;;4994303;28;20201;-84
2021/03/02 11:25:01;;;;;;;11.40;8.60;;;20.20;38.50;;;;;;4993982;28;20708;-83
2021/03/02 11:27:27;;;;;;;11.70;9.10;;;19.60;39.80;;;;;;4994376;28;20904;-87
2021/03/02 11:29:54;;;;;;;11.23;9.00;;;18.90;40.80;;;;;;4993915;28;20449;-82
2021/03/02 11:32:20;;;;;;;11.43;7.60;;;18.50;41.80;;;;;;4994278;28;20584;-86
2021/03/02 11:34:47;;;;;;;9.40;7.57;;;18.00;42.90;;;;;;4993863;28;20480;-83
2021/03/02 11:37:13;;;;;;;11.47;8.17;;;17.70;43.90;;;;;;4993719;28;20455;-83
2021/03/02 11:39:39;;;;;;;14.67;7.97;;;17.20;44.60;;;;;;5013160;28;20498;-84
2021/03/02 11:42:07;;;;;;;9.30;7.57;;;17.00;45.30;;;;;;5004900;28;20448;-84
2021/03/02 11:44:34;;;;;;;11.80;8.77;;;17.00;44.80;;;;;;4993606;28;20457;-83
2021/03/02 11:47:00;;;;;;;12.57;8.73;;;16.90;44.00;;;;;;5000217;28;20447;-84
2021/03/02 11:49:26;;;;;;;10.80;8.60;;;16.80;44.90;;;;;;4996529;28;20449;-83
2021/03/02 11:51:53;;;;;;;9.10;7.30;;;16.70;45.60;;;;;;4998079;28;20452;-83
2021/03/02 11:54:20;;;;;;;12.20;7.60;;;16.50;45.80;;;;;;5012901;28;21069;-83
2021/03/02 11:56:46;;;;;;;11.30;7.70;;;16.40;46.30;;;;;;5012706;28;20451;-83
2021/03/02 11:59:14;;;;;;;11.70;8.57;;;16.40;46.10;;;;;;4999185;28;20476;-83
2021/03/02 12:01:40;;;;;;;10.67;7.47;;;16.20;45.40;;;;;;5001507;28;20845;-84
2021/03/02 12:04:06;;;;;;;13.30;8.20;;;16.20;46.60;;;;;;5012987;28;20438;-83
2021/03/02 12:06:33;;;;;;;13.00;8.40;;;16.30;45.80;;;;;;5012520;28;20483;-83
2021/03/02 12:08:59;;;;;;;13.57;7.50;;;16.20;45.70;;;;;;5013130;28;20443;-83
2021/03/02 12:11:25;;;;;;;10.50;7.60;;;16.10;45.00;;;;;;5009592;28;20822;-83
2021/03/02 12:13:51;;;;;;;11.20;6.80;;;16.00;45.20;;;;;;4993169;28;20940;-83
2021/03/02 12:16:18;;;;;;;8.40;5.83;;;16.00;45.00;;;;;;4994253;28;20472;-83
2021/03/02 12:18:45;;;;;;;12.23;7.27;;;15.90;45.20;;;;;;5012925;28;20549;-83
2021/03/02 12:21:11;;;;;;;8.03;6.03;;;15.70;44.50;;;;;;5012754;28;20456;-83
2021/03/02 12:23:37;;;;;;;9.47;6.73;;;15.70;44.60;;;;;;4995373;28;20456;-83
2021/03/02 12:26:03;;;;;;;9.17;6.63;;;15.70;44.40;;;;;;4997212;28;20479;-84
2021/03/02 12:28:30;;;;;;;9.90;6.20;;;15.80;43.60;;;;;;5015501;28;20455;-84
2021/03/02 12:30:56;;;;;;;8.33;5.97;;;15.70;42.30;;;;;;5015660;28;20448;-84
2021/03/02 12:33:23;;;;;;;12.97;7.50;;;15.50;42.90;;;;;;5015663;28;20827;-84
2021/03/02 12:35:50;;;;;;;7.20;6.10;;;15.40;42.40;;;;;;5016426;28;20471;-84
2021/03/02 12:38:17;;;;;;;7.60;5.20;;;15.30;42.80;;;;;;4996870;28;20472;-84
2021/03/02 12:40:43;;;;;;;9.50;5.57;;;15.10;43.00;;;;;;4996774;28;20453;-83
2021/03/02 12:43:10;;;;;;;7.57;5.33;;;14.90;43.40;;;;;;5012031;28;20811;-83
2021/03/02 12:45:36;;;;;;;6.70;4.23;;;14.90;42.00;;;;;;5016223;28;20471;-86
2021/03/02 12:48:04;;;;;;;9.40;4.30;;;14.90;41.40;;;;;;5014586;28;20451;-86
2021/03/02 12:50:31;;;;;;;7.13;4.90;;;15.00;40.30;;;;;;5016001;28;20447;-86
2021/03/02 12:52:59;;;;;;;9.50;5.10;;;15.00;39.90;;;;;;5015545;28;20440;-83
2021/03/02 12:55:25;;;;;;;10.87;4.73;;;14.90;38.90;;;;;;5015633;28;20495;-83
2021/03/02 12:57:52;;;;;;;9.80;5.33;;;14.90;39.30;;;;;;5015570;28;20485;-81
2021/03/02 13:00:19;;;;;;;6.23;3.87;;;14.80;40.20;;;;;;5007910;28;20489;-80
2021/03/02 13:02:46;;;;;;;12.17;4.63;;;14.80;40.00;;;;;;4997400;28;20956;-81
2021/03/02 13:05:14;;;;;;;4.93;4.00;;;14.80;39.80;;;;;;5004359;28;20563;-83
2021/03/02 13:07:43;;;;;;;10.50;4.57;;;14.70;38.50;;;;;;5005075;28;20826;-86
2021/03/02 13:10:10;;;;;;;7.60;4.30;;;14.70;38.60;;;;;;5015774;28;20467;-86
2021/03/02 13:12:36;;;;;;;11.87;5.47;;;14.60;38.40;;;;;;5002670;28;20496;-82
2021/03/02 13:15:03;;;;;;;6.90;4.47;;;14.50;39.00;;;;;;4995980;28;20964;-86
2021/03/02 13:17:30;;;;;;;10.50;4.70;;;14.50;38.80;;;;;;5006454;28;20490;-86
2021/03/02 13:19:58;;;;;;;6.17;3.83;;;14.50;37.90;;;;;;5008692;28;20818;-84
2021/03/02 13:22:25;;;;;;;5.63;2.87;;;14.50;38.10;;;;;;4995826;28;20466;-84